createdAt,value
2019-04-22T04:04:09.015Z,2.87
2019-04-22T04:09:14.272Z,2.03
2019-04-22T04:14:09.329Z,2.50
2019-04-22T04:24:32.745Z,2.50
2019-04-22T04:34:28.559Z,2.20
2019-04-22T04:44:45.307Z,3.10
2019-04-22T04:59:53.197Z,2.63
2019-04-22T05:04:48.759Z,2.40
2019-04-22T05:09:32.418Z,2.47
2019-04-22T05:14:48.939Z,2.40
2019-04-22T05:19:47.412Z,2.70
2019-04-22T05:24:50.750Z,2.47
2019-04-22T05:30:08.806Z,2.50
2019-04-22T05:34:55.843Z,2.83
2019-04-22T05:40:06.180Z,2.87
2019-04-22T05:45:04.606Z,2.97
2019-04-22T05:50:02.377Z,3.27
2019-04-22T05:55:08.290Z,3.10
2019-04-22T06:00:15.684Z,2.93
2019-04-22T06:10:21.440Z,3.10
2019-04-22T06:15:18.355Z,3.00
2019-04-22T06:20:23.703Z,3.07
2019-04-22T06:25:39.627Z,2.83
2019-04-22T06:30:29.164Z,3.10
2019-04-22T06:40:45.044Z,2.97
2019-04-22T06:45:58.382Z,3.63
2019-04-22T06:50:41.769Z,3.17
2019-04-22T06:55:45.591Z,3.70
2019-04-22T07:00:45.971Z,3.30
2019-04-22T07:05:52.464Z,3.63
2019-04-22T07:10:50.355Z,3.13
2019-04-22T07:16:00.391Z,3.37
2019-04-22T07:21:01.425Z,4.27
2019-04-22T07:26:04.369Z,3.60
2019-04-22T07:31:13.047Z,3.80
2019-04-22T07:41:16.964Z,3.03
2019-04-22T07:46:18.622Z,3.27
2019-04-22T07:51:19.931Z,3.40
2019-04-22T07:56:24.212Z,3.43
2019-04-22T08:01:26.372Z,3.57
2019-04-22T08:06:31.334Z,2.80
2019-04-22T08:11:46.275Z,2.73
2019-04-22T08:16:38.166Z,3.23
2019-04-22T08:21:44.367Z,2.67
2019-04-22T08:26:48.175Z,2.80
2019-04-22T08:31:48.614Z,3.00
2019-04-22T08:37:12.349Z,2.63
2019-04-22T08:41:49.831Z,2.27
2019-04-22T08:51:56.846Z,2.53
2019-04-22T08:57:01.659Z,2.17
2019-04-22T09:02:09.914Z,2.40
2019-04-22T09:12:10.374Z,3.00
2019-04-22T09:17:16.101Z,2.57
2019-04-22T09:22:26.630Z,3.10
2019-04-22T09:27:31.749Z,2.40
2019-04-22T09:32:38.865Z,2.70
2019-04-22T09:37:36.380Z,2.87
2019-04-22T09:42:37.149Z,3.03
2019-04-22T09:47:33.807Z,2.87
2019-04-22T09:52:37.540Z,2.80
2019-04-22T09:57:38.119Z,2.87
2019-04-22T10:07:47.269Z,3.17
2019-04-22T10:17:54.009Z,2.60
2019-04-22T10:22:53.249Z,2.60
2019-04-22T10:28:04.909Z,2.83
2019-04-22T10:32:56.252Z,2.97
2019-04-22T10:37:36.552Z,2.90
2019-04-22T10:42:41.420Z,2.63
2019-04-22T10:47:42.815Z,2.43
2019-04-22T10:52:43.804Z,2.40
2019-04-22T10:57:44.687Z,2.77
2019-04-22T11:02:45.838Z,2.23
2019-04-22T11:07:53.904Z,2.73
2019-04-22T11:12:51.213Z,2.87
2019-04-22T11:17:53.548Z,2.30
2019-04-22T11:22:56.256Z,2.20
2019-04-22T11:27:57.827Z,2.33
2019-04-22T11:33:00.440Z,2.00
2019-04-22T11:38:01.607Z,2.20
2019-04-22T11:43:04.023Z,2.00
2019-04-22T11:48:05.689Z,2.00
2019-04-22T11:53:07.139Z,2.07
2019-04-22T11:58:08.720Z,1.70
2019-04-22T12:03:10.147Z,1.90
2019-04-22T12:08:11.377Z,1.87
2019-04-22T12:13:12.631Z,2.17
2019-04-22T12:18:15.204Z,1.97
2019-04-22T12:23:17.029Z,1.70
2019-04-22T12:28:19.096Z,1.90
2019-04-22T12:33:21.230Z,1.87
2019-04-22T12:38:23.990Z,2.10
2019-04-22T12:43:26.447Z,1.87
2019-04-22T12:48:28.209Z,1.90
2019-04-22T12:53:29.917Z,1.90
2019-04-22T12:58:31.717Z,2.20
2019-04-22T13:03:34.116Z,2.27
2019-04-22T13:08:35.837Z,2.03
2019-04-22T13:13:36.911Z,2.17
2019-04-22T13:18:49.318Z,2.20
2019-04-22T13:23:44.673Z,1.97
2019-04-22T13:28:45.555Z,2.10
2019-04-22T13:33:46.984Z,2.30
2019-04-22T13:38:49.269Z,1.73
2019-04-22T13:43:51.021Z,1.97
2019-04-22T13:49:14.687Z,2.13
2019-04-22T13:59:10.195Z,2.03
2019-04-22T14:04:24.688Z,2.33
2019-04-22T14:09:26.434Z,2.10
2019-04-22T14:14:28.104Z,2.37
2019-04-22T14:19:29.913Z,2.20
2019-04-22T14:24:31.209Z,2.27
2019-04-22T14:29:33.458Z,1.97
2019-04-22T14:34:34.599Z,2.47
2019-04-22T14:39:35.851Z,1.87
2019-04-22T14:50:02.734Z,2.43
2019-04-22T14:54:54.318Z,2.47
2019-04-22T14:59:46.157Z,2.53
2019-04-22T15:04:48.002Z,2.33
2019-04-22T15:09:50.249Z,2.13
2019-04-22T15:14:51.344Z,2.13
2019-04-22T15:20:07.700Z,2.17
2019-04-22T15:25:10.327Z,2.30
2019-04-22T15:30:11.838Z,2.37
2019-04-22T15:35:13.382Z,2.43
2019-04-22T15:40:14.488Z,2.30
2019-04-22T15:45:16.864Z,2.03
2019-04-22T15:50:22.625Z,1.80
2019-04-22T15:55:24.657Z,1.80
2019-04-22T16:00:40.741Z,1.90
2019-04-22T16:05:32.260Z,2.20
2019-04-22T16:10:33.767Z,2.30
2019-04-22T16:15:36.349Z,2.47
2019-04-22T16:20:38.407Z,2.30
2019-04-22T16:25:51.428Z,2.00
2019-04-22T16:30:53.249Z,2.70
2019-04-22T16:35:55.030Z,2.33
2019-04-22T16:40:56.823Z,2.33
2019-04-22T16:45:58.069Z,2.13
2019-04-22T16:51:00.186Z,2.43
2019-04-22T16:56:02.568Z,2.60
2019-04-22T17:01:07.018Z,2.37
2019-04-22T17:06:17.168Z,2.30
2019-04-22T17:11:20.017Z,2.80
2019-04-22T17:16:21.252Z,2.30
2019-04-22T17:21:23.484Z,2.57
2019-04-22T17:26:26.311Z,2.50
2019-04-22T17:31:28.859Z,2.57
2019-04-22T17:36:30.048Z,2.87
2019-04-22T17:41:51.206Z,2.33
2019-04-22T17:46:50.927Z,2.50
2019-04-22T17:52:34.643Z,2.67
2019-04-22T17:57:22.469Z,2.57
2019-04-22T18:02:22.657Z,2.27
2019-04-22T18:07:36.977Z,2.47
2019-04-22T18:12:38.542Z,2.70
2019-04-22T18:17:38.638Z,2.80
2019-04-22T18:22:24.421Z,2.63
2019-04-22T18:27:49.050Z,2.80
2019-04-22T18:32:40.189Z,2.70
2019-04-22T18:37:43.759Z,3.10
2019-04-22T18:42:49.421Z,2.93
2019-04-22T18:47:43.669Z,2.63
2019-04-22T18:52:59.251Z,2.80
2019-04-22T18:58:01.022Z,3.20
2019-04-22T19:02:54.171Z,2.40
2019-04-22T19:08:20.374Z,3.10
2019-04-22T19:13:48.982Z,3.07
2019-04-22T19:18:23.997Z,2.93
2019-04-22T19:23:25.869Z,3.13
2019-04-22T19:28:29.076Z,3.20
2019-04-22T19:33:29.036Z,2.60
2019-04-22T19:43:47.405Z,3.10
2019-04-22T19:48:50.288Z,3.43
2019-04-22T19:53:51.319Z,2.70
2019-04-22T19:58:47.688Z,3.23
2019-04-22T20:04:13.687Z,3.00
2019-04-22T20:09:12.188Z,2.97
2019-04-22T20:14:06.389Z,3.50
2019-04-22T20:19:19.522Z,2.97
2019-04-22T20:24:02.180Z,3.17
2019-04-22T20:29:24.355Z,3.30
2019-04-22T20:34:22.260Z,2.60
2019-04-22T20:39:20.387Z,2.83
2019-04-22T21:06:10.320Z,2.83
2019-04-22T21:11:17.800Z,3.10
2019-04-22T21:16:22.307Z,3.30
2019-04-22T21:21:25.029Z,3.40
2019-04-22T21:26:24.081Z,3.00
2019-04-22T21:42:24.659Z,2.40
2019-04-22T21:47:28.927Z,2.63
2019-04-22T21:52:28.089Z,3.20
2019-04-22T21:57:57.732Z,2.83
2019-04-22T22:02:58.542Z,2.87
2019-04-22T22:07:48.071Z,2.80
2019-04-22T22:13:00.804Z,3.37
2019-04-22T22:17:58.709Z,2.80
2019-04-22T22:23:20.336Z,3.30
2019-04-22T22:28:07.779Z,3.00
2019-04-22T22:33:10.565Z,3.00
2019-04-22T22:38:13.409Z,3.40
2019-04-22T22:42:57.858Z,3.17
2019-04-22T22:53:29.108Z,3.23
2019-04-22T22:58:30.223Z,2.80
2019-04-22T23:08:32.938Z,2.90
2019-04-22T23:13:40.446Z,3.40
2019-04-22T23:18:16.243Z,2.70
2019-04-22T23:23:38.179Z,2.40
2019-04-22T23:28:37.273Z,3.20
2019-04-22T23:33:49.448Z,3.23
2019-04-22T23:39:02.419Z,3.00
2019-04-22T23:44:02.017Z,3.40
2019-04-22T23:48:53.529Z,3.43
2019-04-22T23:54:11.113Z,3.20
2019-04-22T23:59:06.840Z,2.80
